Aviation Digital Data Service (ADDS)

Output produced by METARs form (0757 UTC 08 May 2021)
found at http://www.aviationweather.gov/metar/data/
 
METAR text: LFMY 080730Z AUTO VRB02KT CAVOK 17/08 Q1019
Conditions at: LFMY (SALON (FAFB) , FR) observed 0730 UTC 08 May 2021
Temperature: 17.0°C (63°F)
Dewpoint: 8.0°C (46°F) [RH = 55%]
Pressure (altimeter): 30.09 inches Hg (1019.0 mb)
Winds: variable direction winds at 2 MPH (2 knots; 1.0 m/s)
Visibility: 6 or more miles (10+ km)
Ceiling: ceiling and visibility are OK
Clouds: unknown
Weather: no significant weather observed at this time

METAR text: LFMY 080700Z AUTO VRB01KT CAVOK 16/08 Q1018
Conditions at: LFMY (SALON (FAFB) , FR) observed 0700 UTC 08 May 2021
Temperature: 16.0°C (61°F)
Dewpoint: 8.0°C (46°F) [RH = 59%]
Pressure (altimeter): 30.06 inches Hg (1018.0 mb)
Winds: variable direction winds at 1 MPH (1 knots; 0.5 m/s)
Visibility: 6 or more miles (10+ km)
Ceiling: ceiling and visibility are OK
Clouds: unknown
Weather: no significant weather observed at this time